sensor_id;sensor_type;location;lat;lon;timestamp;temperature;humidity
10443;DHT22;5269;51.146;16.986;2023-08-20T15:48:59;33.20;99.90
10443;DHT22;5269;51.146;16.986;2023-08-20T15:51:29;33.40;99.90
10443;DHT22;5269;51.146;16.986;2023-08-20T16:16:11;34.70;99.90
10443;DHT22;5269;51.146;16.986;2023-08-20T16:45:38;34.30;99.90
10443;DHT22;5269;51.146;16.986;2023-08-20T16:48:11;33.90;99.90
10443;DHT22;5269;51.146;16.986;2023-08-20T17:04:01;33.80;99.90
10443;DHT22;5269;51.146;16.986;2023-08-20T17:09:58;32.50;1.00
10443;DHT22;5269;51.146;16.986;2023-08-20T17:12:28;31.60;1.00
10443;DHT22;5269;51.146;16.986;2023-08-20T17:18:18;31.30;1.00
10443;DHT22;5269;51.146;16.986;2023-08-20T17:20:50;31.10;1.00
10443;DHT22;5269;51.146;16.986;2023-08-20T17:23:18;30.80;1.00
10443;DHT22;5269;51.146;16.986;2023-08-20T17:25:57;30.80;1.00
10443;DHT22;5269;51.146;16.986;2023-08-20T17:28:30;30.90;1.00
10443;DHT22;5269;51.146;16.986;2023-08-20T17:31:02;30.80;1.00
10443;DHT22;5269;51.146;16.986;2023-08-20T17:33:50;30.70;1.00
10443;DHT22;5269;51.146;16.986;2023-08-20T17:36:29;30.70;1.00
10443;DHT22;5269;51.146;16.986;2023-08-20T17:38:58;30.50;1.00
10443;DHT22;5269;51.146;16.986;2023-08-20T17:41:30;30.20;1.00
10443;DHT22;5269;51.146;16.986;2023-08-20T17:43:59;29.80;1.00
10443;DHT22;5269;51.146;16.986;2023-08-20T17:46:41;29.40;1.00
10443;DHT22;5269;51.146;16.986;2023-08-20T17:49:08;29.00;12.40
10443;DHT22;5269;51.146;16.986;2023-08-20T17:51:39;28.90;38.60
10443;DHT22;5269;51.146;16.986;2023-08-20T17:54:07;28.80;41.40
10443;DHT22;5269;51.146;16.986;2023-08-20T17:56:34;28.80;45.00
10443;DHT22;5269;51.146;16.986;2023-08-20T17:59:01;28.60;68.90
10443;DHT22;5269;51.146;16.986;2023-08-20T18:01:28;28.40;99.50
10443;DHT22;5269;51.146;16.986;2023-08-20T18:03:55;28.10;99.90
10443;DHT22;5269;51.146;16.986;2023-08-20T18:06:29;27.90;99.90
10443;DHT22;5269;51.146;16.986;2023-08-20T18:08:58;27.70;99.90
10443;DHT22;5269;51.146;16.986;2023-08-20T18:11:24;27.50;99.90
10443;DHT22;5269;51.146;16.986;2023-08-20T18:13:51;27.50;99.90
10443;DHT22;5269;51.146;16.986;2023-08-20T18:16:18;27.50;99.90
10443;DHT22;5269;51.146;16.986;2023-08-20T18:18:48;27.40;99.90
10443;DHT22;5269;51.146;16.986;2023-08-20T18:21:15;27.10;99.90
10443;DHT22;5269;51.146;16.986;2023-08-20T18:23:42;27.00;99.90
10443;DHT22;5269;51.146;16.986;2023-08-20T18:26:10;26.90;99.90
10443;DHT22;5269;51.146;16.986;2023-08-20T18:28:37;26.90;1.00
10443;DHT22;5269;51.146;16.986;2023-08-20T18:31:04;26.70;99.90
10443;DHT22;5269;51.146;16.986;2023-08-20T18:33:31;26.50;1.00
10443;DHT22;5269;51.146;16.986;2023-08-20T18:35:59;26.40;1.00
10443;DHT22;5269;51.146;16.986;2023-08-20T18:38:37;26.20;1.00
10443;DHT22;5269;51.146;16.986;2023-08-20T18:41:12;26.00;1.00
10443;DHT22;5269;51.146;16.986;2023-08-20T18:43:40;25.90;1.00
10443;DHT22;5269;51.146;16.986;2023-08-20T18:46:10;25.70;99.90
10443;DHT22;5269;51.146;16.986;2023-08-20T18:48:38;25.80;6.50
10443;DHT22;5269;51.146;16.986;2023-08-20T18:51:08;25.80;99.90
10443;DHT22;5269;51.146;16.986;2023-08-20T18:53:51;25.80;80.40
10443;DHT22;5269;51.146;16.986;2023-08-20T18:56:37;25.80;1.00
10443;DHT22;5269;51.146;16.986;2023-08-20T18:59:06;26.00;1.00
10443;DHT22;5269;51.146;16.986;2023-08-20T19:01:42;26.00;30.60
10443;DHT22;5269;51.146;16.986;2023-08-20T19:04:21;25.90;1.00
10443;DHT22;5269;51.146;16.986;2023-08-20T19:06:50;25.90;1.00
10443;DHT22;5269;51.146;16.986;2023-08-20T19:09:19;25.90;1.00
10443;DHT22;5269;51.146;16.986;2023-08-20T19:11:50;25.80;1.00
10443;DHT22;5269;51.146;16.986;2023-08-20T19:14:19;25.80;99.90
10443;DHT22;5269;51.146;16.986;2023-08-20T19:16:48;25.70;99.90
10443;DHT22;5269;51.146;16.986;2023-08-20T19:19:15;25.70;99.90
10443;DHT22;5269;51.146;16.986;2023-08-20T19:21:48;25.70;99.90
10443;DHT22;5269;51.146;16.986;2023-08-20T19:24:16;25.70;99.90
10443;DHT22;5269;51.146;16.986;2023-08-20T19:26:45;25.60;99.90
10443;DHT22;5269;51.146;16.986;2023-08-20T19:29:20;25.60;99.90
10443;DHT22;5269;51.146;16.986;2023-08-20T19:31:49;25.40;99.90
10443;DHT22;5269;51.146;16.986;2023-08-20T19:37:10;25.20;1.00
10443;DHT22;5269;51.146;16.986;2023-08-20T19:39:37;25.20;1.00
10443;DHT22;5269;51.146;16.986;2023-08-20T19:42:07;25.10;1.00
10443;DHT22;5269;51.146;16.986;2023-08-20T19:44:38;25.10;99.90
10443;DHT22;5269;51.146;16.986;2023-08-20T19:47:08;25.00;99.90
10443;DHT22;5269;51.146;16.986;2023-08-20T19:49:41;24.90;1.00
10443;DHT22;5269;51.146;16.986;2023-08-20T19:52:21;24.80;1.00
10443;DHT22;5269;51.146;16.986;2023-08-20T19:54:52;24.70;99.90
10443;DHT22;5269;51.146;16.986;2023-08-20T19:57:38;24.80;99.90
10443;DHT22;5269;51.146;16.986;2023-08-20T20:00:09;24.70;1.00
10443;DHT22;5269;51.146;16.986;2023-08-20T20:02:38;24.70;99.90
10443;DHT22;5269;51.146;16.986;2023-08-20T20:05:09;24.80;1.00
10443;DHT22;5269;51.146;16.986;2023-08-20T20:07:39;24.80;1.00
10443;DHT22;5269;51.146;16.986;2023-08-20T20:10:09;24.80;99.90
10443;DHT22;5269;51.146;16.986;2023-08-20T20:12:39;24.80;1.00
10443;DHT22;5269;51.146;16.986;2023-08-20T20:15:10;24.50;1.00
10443;DHT22;5269;51.146;16.986;2023-08-20T20:17:39;24.50;69.30
10443;DHT22;5269;51.146;16.986;2023-08-20T20:20:10;24.50;99.90
10443;DHT22;5269;51.146;16.986;2023-08-20T20:22:38;24.50;1.00
10443;DHT22;5269;51.146;16.986;2023-08-20T20:25:08;24.40;1.00
10443;DHT22;5269;51.146;16.986;2023-08-20T20:27:41;24.40;1.00
10443;DHT22;5269;51.146;16.986;2023-08-20T20:30:10;24.50;1.00
10443;DHT22;5269;51.146;16.986;2023-08-20T20:32:39;24.50;1.00
10443;DHT22;5269;51.146;16.986;2023-08-20T20:35:10;24.40;1.00
10443;DHT22;5269;51.146;16.986;2023-08-20T20:37:39;24.40;99.90
10443;DHT22;5269;51.146;16.986;2023-08-20T20:40:09;24.40;70.00
10443;DHT22;5269;51.146;16.986;2023-08-20T20:42:41;24.20;1.00
10443;DHT22;5269;51.146;16.986;2023-08-20T20:45:29;24.10;99.90
10443;DHT22;5269;51.146;16.986;2023-08-20T20:47:58;24.10;99.90
10443;DHT22;5269;51.146;16.986;2023-08-20T20:50:31;24.00;99.90
10443;DHT22;5269;51.146;16.986;2023-08-20T20:53:08;23.80;99.90
10443;DHT22;5269;51.146;16.986;2023-08-20T20:55:42;23.80;1.00
10443;DHT22;5269;51.146;16.986;2023-08-20T20:58:19;23.70;99.90
10443;DHT22;5269;51.146;16.986;2023-08-20T21:00:50;23.60;99.90
10443;DHT22;5269;51.146;16.986;2023-08-20T21:03:20;23.60;99.90
10443;DHT22;5269;51.146;16.986;2023-08-20T21:05:48;23.50;99.90
10443;DHT22;5269;51.146;16.986;2023-08-20T21:08:21;23.50;99.90
10443;DHT22;5269;51.146;16.986;2023-08-20T21:10:51;23.60;99.90
10443;DHT22;5269;51.146;16.986;2023-08-20T21:13:18;23.60;99.90
10443;DHT22;5269;51.146;16.986;2023-08-20T21:15:49;23.70;99.90
10443;DHT22;5269;51.146;16.986;2023-08-20T21:18:16;23.80;99.90
10443;DHT22;5269;51.146;16.986;2023-08-20T21:20:49;23.80;99.90
10443;DHT22;5269;51.146;16.986;2023-08-20T21:23:16;23.80;99.90
10443;DHT22;5269;51.146;16.986;2023-08-20T21:25:43;23.80;99.90
10443;DHT22;5269;51.146;16.986;2023-08-20T21:28:10;23.80;99.90
10443;DHT22;5269;51.146;16.986;2023-08-20T21:30:39;23.80;99.90
10443;DHT22;5269;51.146;16.986;2023-08-20T21:33:09;23.80;99.90
10443;DHT22;5269;51.146;16.986;2023-08-20T21:35:36;23.70;99.90
10443;DHT22;5269;51.146;16.986;2023-08-20T21:38:04;23.70;99.90
10443;DHT22;5269;51.146;16.986;2023-08-20T21:40:34;23.60;99.90
10443;DHT22;5269;51.146;16.986;2023-08-20T21:43:06;23.60;99.90
10443;DHT22;5269;51.146;16.986;2023-08-20T21:45:34;23.40;99.90
10443;DHT22;5269;51.146;16.986;2023-08-20T21:48:09;23.60;99.90
10443;DHT22;5269;51.146;16.986;2023-08-20T21:50:37;23.50;99.90
10443;DHT22;5269;51.146;16.986;2023-08-20T21:53:09;23.40;99.90
10443;DHT22;5269;51.146;16.986;2023-08-20T21:55:38;23.30;99.90
10443;DHT22;5269;51.146;16.986;2023-08-20T21:58:10;23.20;99.90
10443;DHT22;5269;51.146;16.986;2023-08-20T22:00:38;23.20;99.90
10443;DHT22;5269;51.146;16.986;2023-08-20T22:03:09;23.30;99.90
10443;DHT22;5269;51.146;16.986;2023-08-20T22:05:36;23.30;99.90
10443;DHT22;5269;51.146;16.986;2023-08-20T22:08:03;23.30;99.90
10443;DHT22;5269;51.146;16.986;2023-08-20T22:10:30;23.10;99.90
10443;DHT22;5269;51.146;16.986;2023-08-20T22:12:57;23.00;99.90
10443;DHT22;5269;51.146;16.986;2023-08-20T22:15:24;22.90;99.90
10443;DHT22;5269;51.146;16.986;2023-08-20T22:17:51;23.00;99.90
10443;DHT22;5269;51.146;16.986;2023-08-20T22:20:19;23.00;99.90
10443;DHT22;5269;51.146;16.986;2023-08-20T22:22:46;22.90;99.90
10443;DHT22;5269;51.146;16.986;2023-08-20T22:25:13;23.00;99.90
10443;DHT22;5269;51.146;16.986;2023-08-20T22:27:40;23.00;99.90
10443;DHT22;5269;51.146;16.986;2023-08-20T22:30:07;23.00;99.90
10443;DHT22;5269;51.146;16.986;2023-08-20T22:32:38;23.10;99.90
10443;DHT22;5269;51.146;16.986;2023-08-20T22:35:06;23.10;99.90
10443;DHT22;5269;51.146;16.986;2023-08-20T22:38:00;23.20;99.90
10443;DHT22;5269;51.146;16.986;2023-08-20T22:40:29;23.20;99.90
10443;DHT22;5269;51.146;16.986;2023-08-20T22:42:58;23.10;99.90
10443;DHT22;5269;51.146;16.986;2023-08-20T22:45:25;23.00;99.90
10443;DHT22;5269;51.146;16.986;2023-08-20T22:47:52;23.00;99.90
10443;DHT22;5269;51.146;16.986;2023-08-20T22:50:20;23.00;99.90
10443;DHT22;5269;51.146;16.986;2023-08-20T22:52:48;22.90;99.90
10443;DHT22;5269;51.146;16.986;2023-08-20T22:55:21;22.90;99.90
10443;DHT22;5269;51.146;16.986;2023-08-20T22:57:48;23.00;99.90
10443;DHT22;5269;51.146;16.986;2023-08-20T23:00:16;23.00;99.90
10443;DHT22;5269;51.146;16.986;2023-08-20T23:02:49;23.00;99.90
10443;DHT22;5269;51.146;16.986;2023-08-20T23:05:16;23.10;99.90
10443;DHT22;5269;51.146;16.986;2023-08-20T23:07:52;23.10;99.90
10443;DHT22;5269;51.146;16.986;2023-08-20T23:10:28;23.00;99.90
10443;DHT22;5269;51.146;16.986;2023-08-20T23:13:01;23.00;99.90
10443;DHT22;5269;51.146;16.986;2023-08-20T23:15:48;22.90;99.90
10443;DHT22;5269;51.146;16.986;2023-08-20T23:18:18;22.80;99.90
10443;DHT22;5269;51.146;16.986;2023-08-20T23:20:52;22.80;99.90
10443;DHT22;5269;51.146;16.986;2023-08-20T23:23:21;22.80;99.90
10443;DHT22;5269;51.146;16.986;2023-08-20T23:25:48;22.70;99.90
10443;DHT22;5269;51.146;16.986;2023-08-20T23:28:17;22.70;99.90
10443;DHT22;5269;51.146;16.986;2023-08-20T23:30:44;22.70;99.90
10443;DHT22;5269;51.146;16.986;2023-08-20T23:33:14;22.60;99.90
10443;DHT22;5269;51.146;16.986;2023-08-20T23:35:41;22.60;99.90
10443;DHT22;5269;51.146;16.986;2023-08-20T23:38:08;22.50;99.90
10443;DHT22;5269;51.146;16.986;2023-08-20T23:40:37;22.60;99.90
10443;DHT22;5269;51.146;16.986;2023-08-20T23:43:04;22.60;99.90
10443;DHT22;5269;51.146;16.986;2023-08-20T23:45:31;22.60;99.90
10443;DHT22;5269;51.146;16.986;2023-08-20T23:47:58;22.60;99.90
10443;DHT22;5269;51.146;16.986;2023-08-20T23:50:25;22.70;99.90
10443;DHT22;5269;51.146;16.986;2023-08-20T23:52:53;22.60;99.90
10443;DHT22;5269;51.146;16.986;2023-08-20T23:55:20;22.60;99.90
10443;DHT22;5269;51.146;16.986;2023-08-20T23:57:48;22.60;99.90
